sensor_id;sensor_type;location;lat;lon;timestamp;P1;durP1;ratioP1;P2;durP2;ratioP2
12267;SDS011;6196;48.398;11.736;2023-07-24T00:00:31;12.00;;;7.80;;
12267;SDS011;6196;48.398;11.736;2023-07-24T00:03:00;10.80;;;8.03;;
12267;SDS011;6196;48.398;11.736;2023-07-24T00:05:28;12.50;;;8.07;;
12267;SDS011;6196;48.398;11.736;2023-07-24T00:07:55;11.23;;;8.50;;
12267;SDS011;6196;48.398;11.736;2023-07-24T00:10:22;11.37;;;7.87;;
12267;SDS011;6196;48.398;11.736;2023-07-24T00:12:49;11.03;;;7.70;;
12267;SDS011;6196;48.398;11.736;2023-07-24T00:15:16;15.87;;;8.23;;
12267;SDS011;6196;48.398;11.736;2023-07-24T00:17:44;13.60;;;8.03;;
12267;SDS011;6196;48.398;11.736;2023-07-24T00:20:11;10.77;;;7.07;;
12267;SDS011;6196;48.398;11.736;2023-07-24T00:22:38;10.97;;;7.97;;
12267;SDS011;6196;48.398;11.736;2023-07-24T00:25:05;10.40;;;7.93;;
12267;SDS011;6196;48.398;11.736;2023-07-24T00:27:32;14.17;;;8.50;;
12267;SDS011;6196;48.398;11.736;2023-07-24T00:29:59;12.67;;;8.50;;
12267;SDS011;6196;48.398;11.736;2023-07-24T00:32:26;10.53;;;7.90;;
12267;SDS011;6196;48.398;11.736;2023-07-24T00:34:53;11.37;;;7.90;;
12267;SDS011;6196;48.398;11.736;2023-07-24T00:37:20;11.50;;;8.00;;
12267;SDS011;6196;48.398;11.736;2023-07-24T00:39:47;11.53;;;8.03;;
12267;SDS011;6196;48.398;11.736;2023-07-24T00:42:14;11.47;;;8.23;;
12267;SDS011;6196;48.398;11.736;2023-07-24T00:44:41;11.70;;;7.63;;
12267;SDS011;6196;48.398;11.736;2023-07-24T00:47:08;15.77;;;8.97;;
12267;SDS011;6196;48.398;11.736;2023-07-24T00:49:35;13.23;;;8.27;;
12267;SDS011;6196;48.398;11.736;2023-07-24T00:52:02;12.13;;;8.17;;
12267;SDS011;6196;48.398;11.736;2023-07-24T00:54:29;10.53;;;8.30;;
12267;SDS011;6196;48.398;11.736;2023-07-24T00:56:59;12.53;;;7.83;;
12267;SDS011;6196;48.398;11.736;2023-07-24T00:59:27;12.57;;;7.73;;
12267;SDS011;6196;48.398;11.736;2023-07-24T01:01:54;13.30;;;8.17;;
12267;SDS011;6196;48.398;11.736;2023-07-24T01:04:21;12.33;;;8.80;;
12267;SDS011;6196;48.398;11.736;2023-07-24T01:06:49;12.97;;;8.33;;
12267;SDS011;6196;48.398;11.736;2023-07-24T01:09:16;12.03;;;7.60;;
12267;SDS011;6196;48.398;11.736;2023-07-24T01:11:46;10.93;;;8.33;;
12267;SDS011;6196;48.398;11.736;2023-07-24T01:14:20;11.87;;;8.17;;
12267;SDS011;6196;48.398;11.736;2023-07-24T01:16:51;11.93;;;8.17;;
12267;SDS011;6196;48.398;11.736;2023-07-24T01:19:40;12.87;;;7.83;;
12267;SDS011;6196;48.398;11.736;2023-07-24T01:22:17;13.90;;;8.23;;
12267;SDS011;6196;48.398;11.736;2023-07-24T01:25:27;12.50;;;7.80;;
12267;SDS011;6196;48.398;11.736;2023-07-24T01:28:06;13.53;;;8.03;;
12267;SDS011;6196;48.398;11.736;2023-07-24T01:30:34;14.50;;;8.00;;
12267;SDS011;6196;48.398;11.736;2023-07-24T01:33:01;10.50;;;8.20;;
12267;SDS011;6196;48.398;11.736;2023-07-24T01:35:28;11.77;;;8.33;;
12267;SDS011;6196;48.398;11.736;2023-07-24T01:37:57;11.60;;;8.00;;
12267;SDS011;6196;48.398;11.736;2023-07-24T01:40:26;12.47;;;7.50;;
12267;SDS011;6196;48.398;11.736;2023-07-24T01:42:53;12.43;;;8.13;;
12267;SDS011;6196;48.398;11.736;2023-07-24T01:45:20;13.77;;;8.37;;
12267;SDS011;6196;48.398;11.736;2023-07-24T01:47:47;11.07;;;8.13;;
12267;SDS011;6196;48.398;11.736;2023-07-24T01:50:14;14.27;;;8.50;;
12267;SDS011;6196;48.398;11.736;2023-07-24T01:52:41;14.43;;;8.70;;
12267;SDS011;6196;48.398;11.736;2023-07-24T01:55:08;13.70;;;8.00;;
12267;SDS011;6196;48.398;11.736;2023-07-24T01:57:35;11.63;;;8.20;;
12267;SDS011;6196;48.398;11.736;2023-07-24T02:00:02;11.93;;;8.23;;
12267;SDS011;6196;48.398;11.736;2023-07-24T02:02:29;12.27;;;8.00;;
12267;SDS011;6196;48.398;11.736;2023-07-24T02:04:56;11.53;;;7.63;;
12267;SDS011;6196;48.398;11.736;2023-07-24T02:07:23;12.03;;;7.87;;
12267;SDS011;6196;48.398;11.736;2023-07-24T02:09:50;10.27;;;7.87;;
12267;SDS011;6196;48.398;11.736;2023-07-24T02:12:17;11.23;;;7.23;;
12267;SDS011;6196;48.398;11.736;2023-07-24T02:14:44;9.93;;;7.77;;
12267;SDS011;6196;48.398;11.736;2023-07-24T02:17:14;10.50;;;7.70;;
12267;SDS011;6196;48.398;11.736;2023-07-24T02:19:44;11.43;;;7.90;;
12267;SDS011;6196;48.398;11.736;2023-07-24T02:22:11;11.90;;;7.73;;
12267;SDS011;6196;48.398;11.736;2023-07-24T02:24:38;11.63;;;8.07;;
12267;SDS011;6196;48.398;11.736;2023-07-24T02:27:05;10.17;;;8.20;;
12267;SDS011;6196;48.398;11.736;2023-07-24T02:29:33;10.80;;;7.87;;
12267;SDS011;6196;48.398;11.736;2023-07-24T02:32:00;11.87;;;8.47;;
12267;SDS011;6196;48.398;11.736;2023-07-24T02:34:27;10.20;;;7.80;;
12267;SDS011;6196;48.398;11.736;2023-07-24T02:36:54;9.63;;;7.60;;
12267;SDS011;6196;48.398;11.736;2023-07-24T02:39:21;11.23;;;8.00;;
12267;SDS011;6196;48.398;11.736;2023-07-24T02:41:48;10.90;;;8.17;;
12267;SDS011;6196;48.398;11.736;2023-07-24T02:44:15;12.10;;;8.70;;
12267;SDS011;6196;48.398;11.736;2023-07-24T02:46:42;10.70;;;8.17;;
12267;SDS011;6196;48.398;11.736;2023-07-24T02:49:09;10.63;;;7.77;;
12267;SDS011;6196;48.398;11.736;2023-07-24T02:51:36;11.43;;;8.07;;
12267;SDS011;6196;48.398;11.736;2023-07-24T02:54:03;12.87;;;8.87;;
12267;SDS011;6196;48.398;11.736;2023-07-24T02:56:30;12.37;;;8.83;;
12267;SDS011;6196;48.398;11.736;2023-07-24T02:58:58;10.90;;;8.30;;
12267;SDS011;6196;48.398;11.736;2023-07-24T03:01:24;11.70;;;8.40;;
12267;SDS011;6196;48.398;11.736;2023-07-24T03:03:51;12.43;;;8.43;;
12267;SDS011;6196;48.398;11.736;2023-07-24T03:06:18;11.03;;;8.50;;
12267;SDS011;6196;48.398;11.736;2023-07-24T03:08:45;11.13;;;8.57;;
12267;SDS011;6196;48.398;11.736;2023-07-24T03:11:12;11.07;;;8.63;;
12267;SDS011;6196;48.398;11.736;2023-07-24T03:13:39;11.87;;;8.03;;
12267;SDS011;6196;48.398;11.736;2023-07-24T03:16:07;11.43;;;8.67;;
12267;SDS011;6196;48.398;11.736;2023-07-24T03:18:34;17.73;;;9.23;;
12267;SDS011;6196;48.398;11.736;2023-07-24T03:21:01;11.80;;;8.70;;
12267;SDS011;6196;48.398;11.736;2023-07-24T03:23:29;14.67;;;9.63;;
12267;SDS011;6196;48.398;11.736;2023-07-24T03:25:56;12.60;;;10.00;;
12267;SDS011;6196;48.398;11.736;2023-07-24T03:28:23;16.60;;;10.73;;
12267;SDS011;6196;48.398;11.736;2023-07-24T03:30:50;16.73;;;11.23;;
12267;SDS011;6196;48.398;11.736;2023-07-24T03:33:17;14.83;;;11.20;;
12267;SDS011;6196;48.398;11.736;2023-07-24T03:35:44;14.63;;;11.60;;
12267;SDS011;6196;48.398;11.736;2023-07-24T03:38:11;14.80;;;10.93;;
12267;SDS011;6196;48.398;11.736;2023-07-24T03:40:38;16.13;;;11.87;;
12267;SDS011;6196;48.398;11.736;2023-07-24T03:43:05;15.97;;;12.03;;
12267;SDS011;6196;48.398;11.736;2023-07-24T03:45:32;16.67;;;11.80;;
12267;SDS011;6196;48.398;11.736;2023-07-24T03:47:59;13.80;;;11.60;;
12267;SDS011;6196;48.398;11.736;2023-07-24T03:50:26;14.87;;;11.40;;
12267;SDS011;6196;48.398;11.736;2023-07-24T03:52:55;13.63;;;10.93;;
12267;SDS011;6196;48.398;11.736;2023-07-24T03:55:22;14.20;;;11.23;;
12267;SDS011;6196;48.398;11.736;2023-07-24T03:57:49;16.27;;;11.97;;
12267;SDS011;6196;48.398;11.736;2023-07-24T04:00:16;15.17;;;11.37;;
12267;SDS011;6196;48.398;11.736;2023-07-24T04:02:44;14.60;;;10.90;;
12267;SDS011;6196;48.398;11.736;2023-07-24T04:05:13;14.87;;;11.60;;
12267;SDS011;6196;48.398;11.736;2023-07-24T04:07:40;12.90;;;10.90;;
12267;SDS011;6196;48.398;11.736;2023-07-24T04:10:07;14.23;;;11.33;;
12267;SDS011;6196;48.398;11.736;2023-07-24T04:12:34;14.07;;;11.37;;
12267;SDS011;6196;48.398;11.736;2023-07-24T04:15:01;13.87;;;10.50;;
12267;SDS011;6196;48.398;11.736;2023-07-24T04:17:28;15.50;;;10.90;;
12267;SDS011;6196;48.398;11.736;2023-07-24T04:19:55;12.60;;;10.50;;
12267;SDS011;6196;48.398;11.736;2023-07-24T04:22:22;16.33;;;10.40;;
12267;SDS011;6196;48.398;11.736;2023-07-24T04:24:49;16.10;;;11.17;;
12267;SDS011;6196;48.398;11.736;2023-07-24T04:27:16;13.73;;;10.67;;
12267;SDS011;6196;48.398;11.736;2023-07-24T04:29:43;14.90;;;11.13;;
12267;SDS011;6196;48.398;11.736;2023-07-24T04:32:10;14.50;;;10.93;;
12267;SDS011;6196;48.398;11.736;2023-07-24T04:34:36;15.23;;;11.40;;
12267;SDS011;6196;48.398;11.736;2023-07-24T04:37:04;16.23;;;11.93;;
12267;SDS011;6196;48.398;11.736;2023-07-24T04:39:31;16.13;;;11.97;;
12267;SDS011;6196;48.398;11.736;2023-07-24T04:41:58;17.00;;;12.23;;
12267;SDS011;6196;48.398;11.736;2023-07-24T04:44:24;15.77;;;12.27;;
12267;SDS011;6196;48.398;11.736;2023-07-24T04:46:53;16.47;;;12.87;;
12267;SDS011;6196;48.398;11.736;2023-07-24T04:49:21;15.33;;;11.43;;
12267;SDS011;6196;48.398;11.736;2023-07-24T04:51:48;18.00;;;12.33;;
12267;SDS011;6196;48.398;11.736;2023-07-24T04:54:16;15.30;;;12.03;;
12267;SDS011;6196;48.398;11.736;2023-07-24T04:56:44;13.63;;;11.63;;
12267;SDS011;6196;48.398;11.736;2023-07-24T04:59:11;15.53;;;11.70;;
12267;SDS011;6196;48.398;11.736;2023-07-24T05:01:38;18.43;;;12.30;;
12267;SDS011;6196;48.398;11.736;2023-07-24T05:04:05;18.20;;;12.00;;
12267;SDS011;6196;48.398;11.736;2023-07-24T05:06:38;18.87;;;12.73;;
12267;SDS011;6196;48.398;11.736;2023-07-24T05:09:05;16.53;;;13.07;;
12267;SDS011;6196;48.398;11.736;2023-07-24T05:11:32;13.80;;;10.63;;
12267;SDS011;6196;48.398;11.736;2023-07-24T05:13:59;15.83;;;12.50;;
12267;SDS011;6196;48.398;11.736;2023-07-24T05:16:26;17.03;;;13.00;;
12267;SDS011;6196;48.398;11.736;2023-07-24T05:18:53;16.60;;;12.57;;
12267;SDS011;6196;48.398;11.736;2023-07-24T05:21:20;16.03;;;12.13;;
12267;SDS011;6196;48.398;11.736;2023-07-24T05:23:47;13.77;;;12.17;;
12267;SDS011;6196;48.398;11.736;2023-07-24T05:26:14;15.60;;;12.20;;
12267;SDS011;6196;48.398;11.736;2023-07-24T05:28:41;18.47;;;12.50;;
12267;SDS011;6196;48.398;11.736;2023-07-24T05:31:08;15.17;;;12.70;;
12267;SDS011;6196;48.398;11.736;2023-07-24T05:33:35;15.83;;;12.67;;
12267;SDS011;6196;48.398;11.736;2023-07-24T05:36:02;15.03;;;12.33;;
12267;SDS011;6196;48.398;11.736;2023-07-24T05:38:30;16.03;;;12.70;;
12267;SDS011;6196;48.398;11.736;2023-07-24T05:40:57;15.53;;;11.93;;
12267;SDS011;6196;48.398;11.736;2023-07-24T05:43:26;15.93;;;11.37;;
12267;SDS011;6196;48.398;11.736;2023-07-24T05:45:54;16.17;;;11.50;;
12267;SDS011;6196;48.398;11.736;2023-07-24T05:48:23;16.93;;;11.67;;
12267;SDS011;6196;48.398;11.736;2023-07-24T05:50:51;15.27;;;11.30;;
12267;SDS011;6196;48.398;11.736;2023-07-24T05:53:18;15.43;;;11.20;;
12267;SDS011;6196;48.398;11.736;2023-07-24T05:55:45;13.97;;;11.37;;
12267;SDS011;6196;48.398;11.736;2023-07-24T05:58:12;15.27;;;11.33;;
12267;SDS011;6196;48.398;11.736;2023-07-24T06:00:39;16.00;;;11.40;;
12267;SDS011;6196;48.398;11.736;2023-07-24T06:03:06;14.83;;;11.53;;
12267;SDS011;6196;48.398;11.736;2023-07-24T06:05:34;15.93;;;10.63;;
12267;SDS011;6196;48.398;11.736;2023-07-24T06:08:01;15.23;;;10.80;;
12267;SDS011;6196;48.398;11.736;2023-07-24T06:10:28;14.17;;;10.70;;
12267;SDS011;6196;48.398;11.736;2023-07-24T06:12:55;13.37;;;10.93;;
12267;SDS011;6196;48.398;11.736;2023-07-24T06:15:22;14.17;;;10.87;;
12267;SDS011;6196;48.398;11.736;2023-07-24T06:17:49;15.07;;;10.93;;
12267;SDS011;6196;48.398;11.736;2023-07-24T06:20:19;15.13;;;11.03;;
12267;SDS011;6196;48.398;11.736;2023-07-24T06:22:47;13.23;;;10.20;;
12267;SDS011;6196;48.398;11.736;2023-07-24T06:25:14;16.83;;;10.67;;
12267;SDS011;6196;48.398;11.736;2023-07-24T06:27:40;12.53;;;10.00;;
12267;SDS011;6196;48.398;11.736;2023-07-24T06:30:07;14.43;;;10.70;;
12267;SDS011;6196;48.398;11.736;2023-07-24T06:32:41;13.00;;;9.20;;
12267;SDS011;6196;48.398;11.736;2023-07-24T06:35:09;13.30;;;9.90;;
12267;SDS011;6196;48.398;11.736;2023-07-24T06:37:36;13.03;;;9.80;;
12267;SDS011;6196;48.398;11.736;2023-07-24T06:40:03;12.90;;;9.97;;
12267;SDS011;6196;48.398;11.736;2023-07-24T06:42:32;12.17;;;10.37;;
12267;SDS011;6196;48.398;11.736;2023-07-24T06:45:00;12.87;;;9.50;;
12267;SDS011;6196;48.398;11.736;2023-07-24T06:47:27;10.97;;;8.90;;
12267;SDS011;6196;48.398;11.736;2023-07-24T06:49:54;13.90;;;9.20;;
12267;SDS011;6196;48.398;11.736;2023-07-24T06:52:20;12.93;;;9.93;;
12267;SDS011;6196;48.398;11.736;2023-07-24T06:54:47;12.43;;;9.20;;
12267;SDS011;6196;48.398;11.736;2023-07-24T06:57:14;10.57;;;8.87;;
12267;SDS011;6196;48.398;11.736;2023-07-24T06:59:41;12.63;;;9.27;;
12267;SDS011;6196;48.398;11.736;2023-07-24T07:02:08;12.60;;;8.87;;
12267;SDS011;6196;48.398;11.736;2023-07-24T07:04:35;12.30;;;9.20;;
12267;SDS011;6196;48.398;11.736;2023-07-24T07:07:02;11.77;;;8.80;;
12267;SDS011;6196;48.398;11.736;2023-07-24T07:09:30;9.80;;;8.67;;
12267;SDS011;6196;48.398;11.736;2023-07-24T07:11:57;9.20;;;8.20;;
12267;SDS011;6196;48.398;11.736;2023-07-24T07:14:24;11.20;;;8.27;;
12267;SDS011;6196;48.398;11.736;2023-07-24T07:16:51;11.57;;;9.37;;
12267;SDS011;6196;48.398;11.736;2023-07-24T07:19:18;11.83;;;8.73;;
12267;SDS011;6196;48.398;11.736;2023-07-24T07:21:45;11.27;;;9.27;;
12267;SDS011;6196;48.398;11.736;2023-07-24T07:24:12;10.77;;;9.23;;
12267;SDS011;6196;48.398;11.736;2023-07-24T07:26:39;11.33;;;8.57;;
12267;SDS011;6196;48.398;11.736;2023-07-24T07:29:06;12.20;;;8.50;;
12267;SDS011;6196;48.398;11.736;2023-07-24T07:31:32;11.97;;;8.80;;
12267;SDS011;6196;48.398;11.736;2023-07-24T07:33:59;11.77;;;8.73;;
12267;SDS011;6196;48.398;11.736;2023-07-24T07:36:26;10.57;;;9.47;;
12267;SDS011;6196;48.398;11.736;2023-07-24T07:38:54;14.10;;;10.07;;
12267;SDS011;6196;48.398;11.736;2023-07-24T07:41:21;13.90;;;9.90;;
12267;SDS011;6196;48.398;11.736;2023-07-24T07:43:48;13.97;;;10.50;;
12267;SDS011;6196;48.398;11.736;2023-07-24T07:46:14;15.87;;;10.40;;
12267;SDS011;6196;48.398;11.736;2023-07-24T07:48:42;12.47;;;10.37;;
12267;SDS011;6196;48.398;11.736;2023-07-24T07:51:09;12.07;;;9.47;;
12267;SDS011;6196;48.398;11.736;2023-07-24T07:53:36;13.10;;;10.53;;
12267;SDS011;6196;48.398;11.736;2023-07-24T07:56:03;12.13;;;9.53;;
12267;SDS011;6196;48.398;11.736;2023-07-24T07:58:30;11.10;;;9.00;;
12267;SDS011;6196;48.398;11.736;2023-07-24T08:00:57;9.63;;;8.20;;
12267;SDS011;6196;48.398;11.736;2023-07-24T08:03:24;10.50;;;7.87;;
12267;SDS011;6196;48.398;11.736;2023-07-24T08:05:51;11.17;;;7.60;;
12267;SDS011;6196;48.398;11.736;2023-07-24T08:08:18;7.20;;;6.50;;
12267;SDS011;6196;48.398;11.736;2023-07-24T08:10:45;10.00;;;6.27;;
12267;SDS011;6196;48.398;11.736;2023-07-24T08:13:12;7.67;;;6.80;;
12267;SDS011;6196;48.398;11.736;2023-07-24T08:15:39;7.30;;;6.40;;
12267;SDS011;6196;48.398;11.736;2023-07-24T08:18:06;10.47;;;6.83;;
12267;SDS011;6196;48.398;11.736;2023-07-24T08:20:36;10.00;;;6.70;;
12267;SDS011;6196;48.398;11.736;2023-07-24T08:23:04;10.27;;;7.17;;
12267;SDS011;6196;48.398;11.736;2023-07-24T08:25:31;9.53;;;7.13;;
12267;SDS011;6196;48.398;11.736;2023-07-24T08:27:58;9.73;;;7.83;;
12267;SDS011;6196;48.398;11.736;2023-07-24T08:30:32;11.20;;;9.10;;
12267;SDS011;6196;48.398;11.736;2023-07-24T08:33:00;11.33;;;8.40;;
12267;SDS011;6196;48.398;11.736;2023-07-24T08:35:27;12.43;;;7.83;;
12267;SDS011;6196;48.398;11.736;2023-07-24T08:37:55;11.37;;;8.33;;
12267;SDS011;6196;48.398;11.736;2023-07-24T08:40:22;10.27;;;7.77;;
12267;SDS011;6196;48.398;11.736;2023-07-24T08:42:49;9.33;;;7.80;;
12267;SDS011;6196;48.398;11.736;2023-07-24T08:45:19;10.27;;;8.20;;
12267;SDS011;6196;48.398;11.736;2023-07-24T08:47:46;11.00;;;8.03;;
12267;SDS011;6196;48.398;11.736;2023-07-24T08:50:15;9.83;;;8.17;;
12267;SDS011;6196;48.398;11.736;2023-07-24T08:52:44;9.40;;;7.70;;
12267;SDS011;6196;48.398;11.736;2023-07-24T08:55:13;8.67;;;7.43;;
12267;SDS011;6196;48.398;11.736;2023-07-24T08:57:40;10.47;;;8.27;;
12267;SDS011;6196;48.398;11.736;2023-07-24T09:00:07;10.80;;;7.87;;
12267;SDS011;6196;48.398;11.736;2023-07-24T09:02:35;12.33;;;7.93;;
12267;SDS011;6196;48.398;11.736;2023-07-24T09:05:02;10.33;;;8.13;;
12267;SDS011;6196;48.398;11.736;2023-07-24T09:07:31;8.93;;;7.33;;
12267;SDS011;6196;48.398;11.736;2023-07-24T09:09:58;10.17;;;7.40;;
12267;SDS011;6196;48.398;11.736;2023-07-24T09:12:25;10.97;;;8.07;;
12267;SDS011;6196;48.398;11.736;2023-07-24T09:15:02;10.43;;;7.97;;
12267;SDS011;6196;48.398;11.736;2023-07-24T09:17:32;9.80;;;7.40;;
12267;SDS011;6196;48.398;11.736;2023-07-24T09:19:59;9.87;;;7.80;;
12267;SDS011;6196;48.398;11.736;2023-07-24T09:22:28;13.77;;;8.60;;
12267;SDS011;6196;48.398;11.736;2023-07-24T09:24:56;10.23;;;8.47;;
12267;SDS011;6196;48.398;11.736;2023-07-24T09:27:25;11.47;;;7.90;;
12267;SDS011;6196;48.398;11.736;2023-07-24T09:29:56;9.33;;;7.77;;
12267;SDS011;6196;48.398;11.736;2023-07-24T09:32:24;9.77;;;7.90;;
12267;SDS011;6196;48.398;11.736;2023-07-24T09:34:53;8.70;;;7.20;;
12267;SDS011;6196;48.398;11.736;2023-07-24T09:37:27;11.13;;;7.80;;
12267;SDS011;6196;48.398;11.736;2023-07-24T09:39:57;8.80;;;7.30;;
12267;SDS011;6196;48.398;11.736;2023-07-24T09:42:29;8.33;;;7.43;;
12267;SDS011;6196;48.398;11.736;2023-07-24T09:45:23;9.80;;;7.13;;
12267;SDS011;6196;48.398;11.736;2023-07-24T09:47:51;9.03;;;7.13;;
12267;SDS011;6196;48.398;11.736;2023-07-24T09:50:28;8.67;;;6.93;;
12267;SDS011;6196;48.398;11.736;2023-07-24T09:52:55;7.93;;;6.97;;
12267;SDS011;6196;48.398;11.736;2023-07-24T09:55:25;7.53;;;6.73;;
12267;SDS011;6196;48.398;11.736;2023-07-24T09:58:02;7.93;;;6.07;;
12267;SDS011;6196;48.398;11.736;2023-07-24T10:00:31;8.07;;;6.07;;
12267;SDS011;6196;48.398;11.736;2023-07-24T10:02:58;8.10;;;6.80;;
12267;SDS011;6196;48.398;11.736;2023-07-24T10:05:26;7.97;;;6.20;;
12267;SDS011;6196;48.398;11.736;2023-07-24T10:07:55;10.00;;;7.07;;
12267;SDS011;6196;48.398;11.736;2023-07-24T10:10:23;8.10;;;6.53;;
12267;SDS011;6196;48.398;11.736;2023-07-24T10:12:51;11.27;;;7.03;;
12267;SDS011;6196;48.398;11.736;2023-07-24T10:15:18;8.37;;;6.67;;
12267;SDS011;6196;48.398;11.736;2023-07-24T10:17:46;8.47;;;6.70;;
12267;SDS011;6196;48.398;11.736;2023-07-24T10:20:15;9.23;;;6.80;;
12267;SDS011;6196;48.398;11.736;2023-07-24T10:22:43;7.67;;;6.40;;
12267;SDS011;6196;48.398;11.736;2023-07-24T10:25:10;7.83;;;6.63;;
12267;SDS011;6196;48.398;11.736;2023-07-24T10:27:44;8.50;;;7.30;;
12267;SDS011;6196;48.398;11.736;2023-07-24T10:30:13;8.40;;;6.47;;
12267;SDS011;6196;48.398;11.736;2023-07-24T10:33:10;8.17;;;7.10;;
12267;SDS011;6196;48.398;11.736;2023-07-24T10:35:44;8.87;;;6.90;;
12267;SDS011;6196;48.398;11.736;2023-07-24T10:38:17;9.80;;;6.90;;
12267;SDS011;6196;48.398;11.736;2023-07-24T10:40:45;8.00;;;7.20;;
12267;SDS011;6196;48.398;11.736;2023-07-24T10:43:18;9.20;;;7.77;;
12267;SDS011;6196;48.398;11.736;2023-07-24T10:45:53;8.23;;;7.20;;
12267;SDS011;6196;48.398;11.736;2023-07-24T10:48:21;7.80;;;6.90;;
12267;SDS011;6196;48.398;11.736;2023-07-24T10:50:51;8.33;;;7.23;;
12267;SDS011;6196;48.398;11.736;2023-07-24T10:53:21;9.27;;;7.73;;
12267;SDS011;6196;48.398;11.736;2023-07-24T10:55:49;8.60;;;7.27;;
12267;SDS011;6196;48.398;11.736;2023-07-24T10:58:17;8.40;;;6.67;;
12267;SDS011;6196;48.398;11.736;2023-07-24T11:00:44;9.90;;;6.83;;
12267;SDS011;6196;48.398;11.736;2023-07-24T11:03:13;7.93;;;7.07;;
12267;SDS011;6196;48.398;11.736;2023-07-24T11:05:41;8.43;;;7.33;;
12267;SDS011;6196;48.398;11.736;2023-07-24T11:08:10;9.80;;;7.13;;
12267;SDS011;6196;48.398;11.736;2023-07-24T11:10:46;7.80;;;6.80;;
12267;SDS011;6196;48.398;11.736;2023-07-24T11:13:21;8.60;;;6.80;;
12267;SDS011;6196;48.398;11.736;2023-07-24T11:15:50;8.40;;;6.70;;
12267;SDS011;6196;48.398;11.736;2023-07-24T11:18:19;8.67;;;6.83;;
12267;SDS011;6196;48.398;11.736;2023-07-24T11:20:49;7.37;;;6.60;;
12267;SDS011;6196;48.398;11.736;2023-07-24T11:23:22;8.63;;;6.77;;
12267;SDS011;6196;48.398;11.736;2023-07-24T11:25:51;7.80;;;6.97;;
12267;SDS011;6196;48.398;11.736;2023-07-24T11:28:19;7.30;;;6.60;;
12267;SDS011;6196;48.398;11.736;2023-07-24T11:30:46;8.03;;;7.03;;
12267;SDS011;6196;48.398;11.736;2023-07-24T11:33:15;8.07;;;6.73;;
12267;SDS011;6196;48.398;11.736;2023-07-24T11:35:45;8.83;;;5.80;;
12267;SDS011;6196;48.398;11.736;2023-07-24T11:38:12;7.63;;;5.18;;
12267;SDS011;6196;48.398;11.736;2023-07-24T11:40:40;7.00;;;5.22;;
12267;SDS011;6196;48.398;11.736;2023-07-24T11:43:17;7.70;;;5.30;;
12267;SDS011;6196;48.398;11.736;2023-07-24T11:45:53;6.38;;;5.30;;
12267;SDS011;6196;48.398;11.736;2023-07-24T11:48:21;8.30;;;6.00;;
12267;SDS011;6196;48.398;11.736;2023-07-24T11:50:51;6.55;;;5.00;;
12267;SDS011;6196;48.398;11.736;2023-07-24T11:55:53;7.22;;;5.15;;
12267;SDS011;6196;48.398;11.736;2023-07-24T11:58:25;6.18;;;5.32;;
12267;SDS011;6196;48.398;11.736;2023-07-24T12:00:53;5.55;;;4.97;;
12267;SDS011;6196;48.398;11.736;2023-07-24T12:03:27;5.80;;;5.00;;
12267;SDS011;6196;48.398;11.736;2023-07-24T12:05:56;7.00;;;5.45;;
12267;SDS011;6196;48.398;11.736;2023-07-24T12:08:30;7.30;;;5.50;;
12267;SDS011;6196;48.398;11.736;2023-07-24T12:11:00;7.68;;;5.35;;
12267;SDS011;6196;48.398;11.736;2023-07-24T12:13:28;6.63;;;4.75;;
12267;SDS011;6196;48.398;11.736;2023-07-24T12:15:55;6.22;;;4.95;;
12267;SDS011;6196;48.398;11.736;2023-07-24T12:18:22;7.78;;;5.18;;
12267;SDS011;6196;48.398;11.736;2023-07-24T12:20:49;7.80;;;5.30;;
12267;SDS011;6196;48.398;11.736;2023-07-24T12:23:16;6.68;;;5.35;;
12267;SDS011;6196;48.398;11.736;2023-07-24T12:25:43;7.00;;;5.47;;
12267;SDS011;6196;48.398;11.736;2023-07-24T12:28:10;6.95;;;5.85;;
12267;SDS011;6196;48.398;11.736;2023-07-24T12:30:37;6.10;;;5.28;;
12267;SDS011;6196;48.398;11.736;2023-07-24T12:33:04;6.03;;;5.30;;
12267;SDS011;6196;48.398;11.736;2023-07-24T12:35:31;6.00;;;5.20;;
12267;SDS011;6196;48.398;11.736;2023-07-24T12:37:59;9.40;;;6.17;;
12267;SDS011;6196;48.398;11.736;2023-07-24T12:40:25;9.40;;;5.80;;
12267;SDS011;6196;48.398;11.736;2023-07-24T12:42:53;10.57;;;6.13;;
12267;SDS011;6196;48.398;11.736;2023-07-24T12:45:20;9.57;;;5.60;;
12267;SDS011;6196;48.398;11.736;2023-07-24T12:47:47;8.93;;;5.93;;
12267;SDS011;6196;48.398;11.736;2023-07-24T12:50:14;7.97;;;5.90;;
12267;SDS011;6196;48.398;11.736;2023-07-24T12:52:41;6.30;;;5.17;;
12267;SDS011;6196;48.398;11.736;2023-07-24T12:55:08;6.63;;;5.37;;
12267;SDS011;6196;48.398;11.736;2023-07-24T12:57:35;6.77;;;5.57;;
12267;SDS011;6196;48.398;11.736;2023-07-24T13:00:02;10.17;;;5.33;;
12267;SDS011;6196;48.398;11.736;2023-07-24T13:02:31;6.33;;;5.43;;
12267;SDS011;6196;48.398;11.736;2023-07-24T13:04:58;7.07;;;5.63;;
12267;SDS011;6196;48.398;11.736;2023-07-24T13:07:25;6.60;;;5.40;;
12267;SDS011;6196;48.398;11.736;2023-07-24T13:09:52;6.27;;;5.10;;
12267;SDS011;6196;48.398;11.736;2023-07-24T13:12:19;6.20;;;5.60;;
12267;SDS011;6196;48.398;11.736;2023-07-24T13:14:46;6.47;;;5.20;;
12267;SDS011;6196;48.398;11.736;2023-07-24T13:17:13;6.03;;;5.07;;
12267;SDS011;6196;48.398;11.736;2023-07-24T13:19:40;6.33;;;5.30;;
12267;SDS011;6196;48.398;11.736;2023-07-24T13:22:07;7.17;;;5.20;;
12267;SDS011;6196;48.398;11.736;2023-07-24T13:24:34;8.07;;;5.57;;
12267;SDS011;6196;48.398;11.736;2023-07-24T13:27:01;7.27;;;5.30;;
12267;SDS011;6196;48.398;11.736;2023-07-24T13:29:29;6.97;;;5.63;;
12267;SDS011;6196;48.398;11.736;2023-07-24T13:31:57;5.30;;;4.80;;
12267;SDS011;6196;48.398;11.736;2023-07-24T13:34:24;6.70;;;5.23;;
12267;SDS011;6196;48.398;11.736;2023-07-24T13:36:51;7.47;;;4.90;;
12267;SDS011;6196;48.398;11.736;2023-07-24T13:39:19;6.37;;;5.37;;
12267;SDS011;6196;48.398;11.736;2023-07-24T13:41:46;8.23;;;5.57;;
12267;SDS011;6196;48.398;11.736;2023-07-24T13:44:13;8.37;;;5.07;;
12267;SDS011;6196;48.398;11.736;2023-07-24T13:46:40;5.87;;;5.10;;
12267;SDS011;6196;48.398;11.736;2023-07-24T13:49:07;6.80;;;5.37;;
12267;SDS011;6196;48.398;11.736;2023-07-24T13:51:35;6.47;;;5.33;;
12267;SDS011;6196;48.398;11.736;2023-07-24T13:54:02;6.03;;;5.20;;
12267;SDS011;6196;48.398;11.736;2023-07-24T13:56:29;5.70;;;4.67;;
12267;SDS011;6196;48.398;11.736;2023-07-24T13:59:00;6.23;;;5.20;;
12267;SDS011;6196;48.398;11.736;2023-07-24T14:01:27;5.67;;;4.90;;
12267;SDS011;6196;48.398;11.736;2023-07-24T14:03:55;5.97;;;4.97;;
12267;SDS011;6196;48.398;11.736;2023-07-24T14:06:22;6.30;;;5.23;;
12267;SDS011;6196;48.398;11.736;2023-07-24T14:08:49;5.93;;;4.97;;
12267;SDS011;6196;48.398;11.736;2023-07-24T14:11:16;6.73;;;5.20;;
12267;SDS011;6196;48.398;11.736;2023-07-24T14:13:43;5.73;;;4.63;;
12267;SDS011;6196;48.398;11.736;2023-07-24T14:16:12;5.07;;;4.53;;
12267;SDS011;6196;48.398;11.736;2023-07-24T14:18:39;5.27;;;4.77;;
12267;SDS011;6196;48.398;11.736;2023-07-24T14:21:06;6.50;;;4.63;;
12267;SDS011;6196;48.398;11.736;2023-07-24T14:23:33;6.13;;;4.70;;
12267;SDS011;6196;48.398;11.736;2023-07-24T14:26:00;5.90;;;5.30;;
12267;SDS011;6196;48.398;11.736;2023-07-24T14:28:27;5.93;;;4.87;;
12267;SDS011;6196;48.398;11.736;2023-07-24T14:30:54;6.27;;;4.97;;
12267;SDS011;6196;48.398;11.736;2023-07-24T14:33:21;5.63;;;4.43;;
12267;SDS011;6196;48.398;11.736;2023-07-24T14:35:48;6.40;;;5.07;;
12267;SDS011;6196;48.398;11.736;2023-07-24T14:38:16;7.20;;;5.17;;
12267;SDS011;6196;48.398;11.736;2023-07-24T14:40:43;4.97;;;4.30;;
12267;SDS011;6196;48.398;11.736;2023-07-24T14:43:10;5.17;;;4.50;;